Time;durP1;ratioP1;P1;durP2;ratioP2;P2;SDS_P1;SDS_P2;PMS_P1;PMS_P2;Temp;Humidity;BMP_temperature;BMP_pressure;BME280_temperature;BME280_humidity;BME280_pressure;Samples;Min_cycle;Max_cycle;Signal;HPM_P1;HPM_P2
2023/12/23 00:00:07;;;;;;;5.13;3.20;;;;;;;-143.21;62.35;72171.34;5028731;28;20668;-78
2023/12/23 00:02:33;;;;;;;4.10;2.83;;;;;;;-143.21;62.86;72173.31;5029130;28;20656;-79
2023/12/23 00:05:00;;;;;;;5.87;2.70;;;;;;;-143.21;62.70;72153.47;5029366;28;20217;-78
2023/12/23 00:07:27;;;;;;;3.63;2.50;;;;;;;-143.21;62.36;72147.53;5028831;28;20215;-79
2023/12/23 00:09:54;;;;;;;5.27;3.10;;;;;;;-143.21;62.85;72149.53;5031799;28;20204;-78
2023/12/23 00:12:21;;;;;;;6.07;3.73;;;;;;;-143.21;64.66;72183.22;5029472;28;20200;-79
2023/12/23 00:14:47;;;;;;;6.97;4.20;;;;;;;-143.21;65.35;72179.25;5029389;28;20241;-79
2023/12/23 00:17:16;;;;;;;8.90;4.33;;;;;;;-143.21;65.90;72181.25;5029093;28;20239;-80
2023/12/23 00:19:42;;;;;;;7.20;4.60;;;;;;;-143.21;66.34;72179.25;5030442;28;20217;-78
2023/12/23 00:22:09;;;;;;;5.37;3.20;;;;;;;-143.21;65.69;72169.34;5030105;28;20205;-78
2023/12/23 00:24:36;;;;;;;2.67;2.10;;;;;;;-143.21;65.84;72171.34;5029472;28;20219;-78
2023/12/23 00:27:03;;;;;;;2.70;1.90;;;;;;;-143.21;65.53;72185.22;5029035;28;20224;-79
2023/12/23 00:29:30;;;;;;;2.03;1.80;;;;;;;-143.21;65.00;72173.31;5029426;28;20238;-78
2023/12/23 00:31:57;;;;;;;6.37;3.30;;;;;;;-143.21;65.29;72177.28;5031626;28;20208;-78
2023/12/23 00:34:25;;;;;;;7.43;4.33;;;;;;;-143.21;67.00;72177.28;5027639;28;20240;-80
2023/12/23 00:36:52;;;;;;;8.87;5.00;;;;;;;-143.21;67.97;72212.97;5029649;28;20715;-79
2023/12/23 00:39:19;;;;;;;7.57;4.70;;;;;;;-143.21;68.82;72256.59;5029940;28;20214;-79
2023/12/23 00:41:45;;;;;;;8.90;5.27;;;;;;;-143.21;69.86;72266.53;5030512;28;20212;-79
2023/12/23 00:44:12;;;;;;;7.93;4.63;;;;;;;-143.21;69.89;72272.47;5028597;28;20220;-78
2023/12/23 00:46:39;;;;;;;7.77;4.90;;;;;;;-143.21;69.80;72242.72;5028697;28;20206;-78
2023/12/23 00:49:06;;;;;;;8.27;5.10;;;;;;;-143.21;69.62;72224.88;5028669;28;20208;-79
2023/12/23 00:51:34;;;;;;;3.97;2.80;;;;;;;-143.21;68.71;72250.66;5029024;28;20215;-80
2023/12/23 00:54:01;;;;;;;3.70;2.00;;;;;;;-143.21;67.05;72238.75;5028979;28;20584;-79
2023/12/23 00:56:27;;;;;;;3.37;2.13;;;;;;;-143.21;67.00;72224.88;5027801;28;20741;-78
2023/12/23 00:58:54;;;;;;;10.30;4.00;;;;;;;-143.21;67.84;72216.94;5027848;28;20204;-78
2023/12/23 01:01:21;;;;;;;8.10;4.40;;;;;;;-143.21;67.87;72216.94;5027846;28;20221;-79
2023/12/23 01:03:48;;;;;;;6.83;4.40;;;;;;;-143.21;68.51;72191.16;5030135;28;20222;-78
2023/12/23 01:06:14;;;;;;;7.97;4.93;;;;;;;-143.21;67.94;72179.25;5027338;28;20208;-78
2023/12/23 01:08:43;;;;;;;9.67;5.00;;;;;;;-143.21;68.83;72183.22;5028528;28;20688;-78
2023/12/23 01:11:10;;;;;;;8.23;5.03;;;;;;;-143.21;69.04;72185.22;5026600;28;20213;-78
2023/12/23 01:13:37;;;;;;;6.00;3.83;;;;;;;-143.21;67.61;72179.25;5028578;28;20768;-79
2023/12/23 01:16:04;;;;;;;2.00;1.60;;;;;;;-143.21;64.46;72131.69;5027826;28;20222;-78
2023/12/23 01:18:31;;;;;;;2.00;1.67;;;;;;;-143.21;63.72;72099.94;5025346;28;20213;-79
2023/12/23 01:20:58;;;;;;;2.13;1.90;;;;;;;-143.21;63.14;72058.31;5026832;28;20213;-79
2023/12/23 01:23:25;;;;;;;1.80;1.70;;;;;;;-143.21;62.54;72038.47;5024338;28;20214;-78
2023/12/23 01:25:53;;;;;;;1.60;1.30;;;;;;;-143.21;61.96;72004.75;5027258;28;20214;-78
2023/12/23 01:28:20;;;;;;;1.63;1.40;;;;;;;-143.21;61.85;72006.75;5027738;28;20209;-79
2023/12/23 01:30:47;;;;;;;1.30;1.20;;;;;;;-143.21;61.29;71978.97;5027778;28;20210;-78
2023/12/23 01:33:13;;;;;;;1.40;1.30;;;;;;;-143.21;61.26;71963.13;5027541;28;20214;-78
2023/12/23 01:35:40;;;;;;;1.50;1.40;;;;;;;-143.21;60.97;71949.25;5028407;28;20214;-78
2023/12/23 01:38:07;;;;;;;1.50;1.30;;;;;;;-143.21;61.30;71967.09;5030000;28;20698;-83
2023/12/23 01:40:34;;;;;;;3.37;1.60;;;;;;;-143.21;62.17;71992.88;5031053;28;20303;-82
2023/12/23 01:43:02;;;;;;;1.70;1.57;;;;;;;-143.21;63.26;71994.84;5030826;28;20206;-81
2023/12/23 01:45:29;;;;;;;3.67;2.00;;;;;;;-143.21;63.88;72002.78;5034082;28;20233;-82
2023/12/23 01:47:58;;;;;;;3.50;2.10;;;;;;;-143.21;63.20;71994.84;5031545;28;20692;-83
2023/12/23 01:50:27;;;;;;;1.63;1.47;;;;;;;-143.21;62.40;71963.13;5030364;28;20217;-81
2023/12/23 01:52:56;;;;;;;3.97;1.57;;;;;;;-143.21;62.72;71977.00;5026658;28;20210;-83
2023/12/23 01:55:26;;;;;;;8.90;1.70;;;;;;;-143.21;62.67;71990.88;5029546;28;20726;-83
2023/12/23 01:57:53;;;;;;;2.60;1.90;;;;;;;-143.21;62.72;71961.13;5026579;28;20283;-81
2023/12/23 02:00:22;;;;;;;1.50;1.37;;;;;;;-143.21;61.93;71945.28;5030648;28;20215;-82
2023/12/23 02:02:49;;;;;;;1.53;1.40;;;;;;;-143.21;61.22;71909.56;5027974;28;20229;-78
2023/12/23 02:05:16;;;;;;;2.33;1.63;;;;;;;-143.21;60.47;71907.59;5026619;28;20693;-78
2023/12/23 02:07:45;;;;;;;2.07;1.73;;;;;;;-143.21;60.79;71893.72;5026854;28;20238;-80
2023/12/23 02:10:13;;;;;;;1.90;1.63;;;;;;;-143.21;60.76;71895.69;5028854;28;20198;-80
2023/12/23 02:12:56;;;;;;;2.90;1.67;;;;;;;-143.21;60.24;71877.84;5027565;28;20584;-79
2023/12/23 02:15:26;;;;;;;1.93;1.50;;;;;;;-143.21;60.10;71873.88;5023707;28;20670;-79
2023/12/23 02:17:59;;;;;;;3.20;1.90;;;;;;;-143.21;60.10;71883.81;5023525;28;20218;-79
2023/12/23 02:20:26;;;;;;;3.37;1.57;;;;;;;-143.21;60.44;71883.81;5026075;28;20210;-79
2023/12/23 02:22:54;;;;;;;3.53;1.60;;;;;;;-143.21;60.47;71899.66;5026198;28;20210;-79
2023/12/23 02:25:24;;;;;;;1.67;1.43;;;;;;;-143.21;59.84;71863.97;5027037;28;20218;-77
2023/12/23 02:27:55;;;;;;;1.53;1.40;;;;;;;-143.21;59.55;71875.88;5027284;28;20565;-78
2023/12/23 02:30:24;;;;;;;1.53;1.40;;;;;;;-143.21;58.70;71838.19;5026493;28;20202;-78
2023/12/23 02:32:51;;;;;;;1.83;1.60;;;;;;;-143.21;59.18;71828.28;5027383;28;20198;-78
2023/12/23 02:35:18;;;;;;;2.40;1.53;;;;;;;-143.21;59.14;71822.34;5027896;28;20214;-77
2023/12/23 02:37:45;;;;;;;3.13;1.47;;;;;;;-143.21;59.12;71830.25;5026219;28;20230;-80
2023/12/23 02:40:14;;;;;;;3.20;1.57;;;;;;;-143.21;59.01;71852.06;5025605;28;20225;-79
2023/12/23 02:42:41;;;;;;;1.40;1.30;;;;;;;-143.21;59.19;71850.09;5025812;28;20203;-79
2023/12/23 02:45:08;;;;;;;1.87;1.60;;;;;;;-143.21;60.02;71858.03;5027896;28;20678;-79
2023/12/23 02:47:35;;;;;;;2.17;1.67;;;;;;;-143.21;60.34;71852.06;5026482;28;20210;-80
2023/12/23 02:50:02;;;;;;;1.70;1.50;;;;;;;-143.21;59.89;71844.16;5026320;28;20221;-80
2023/12/23 02:52:29;;;;;;;1.43;1.33;;;;;;;-143.21;58.21;71798.53;5026523;28;20230;-79
2023/12/23 02:54:56;;;;;;;2.00;1.70;;;;;;;-143.21;58.09;71796.56;5026376;28;20595;-78
2023/12/23 02:57:24;;;;;;;1.77;1.53;;;;;;;-143.21;58.05;71788.63;5027462;28;20570;-79
2023/12/23 02:59:51;;;;;;;2.30;1.40;;;;;;;-143.21;58.26;71810.44;5023883;28;20217;-79
2023/12/23 03:02:17;;;;;;;2.33;1.50;;;;;;;-143.21;58.33;71802.50;5026233;28;20210;-79
2023/12/23 03:04:44;;;;;;;1.70;1.50;;;;;;;-143.21;57.58;71784.66;5026590;28;20253;-78
2023/12/23 03:07:11;;;;;;;1.77;1.60;;;;;;;-143.21;57.79;71782.69;5028534;28;20202;-78
2023/12/23 03:09:38;;;;;;;2.67;1.97;;;;;;;-143.21;57.19;71784.66;5025721;28;20297;-79
2023/12/23 03:12:05;;;;;;;1.93;1.70;;;;;;;-143.21;57.32;71792.59;5026097;28;20206;-79
2023/12/23 03:14:33;;;;;;;2.50;1.63;;;;;;;-143.21;57.53;71792.59;5025569;28;20249;-78
2023/12/23 03:17:00;;;;;;;2.37;1.73;;;;;;;-143.21;57.72;71784.66;5027516;28;20227;-78
2023/12/23 03:19:27;;;;;;;2.30;1.90;;;;;;;-143.21;58.19;71770.78;5026324;28;20212;-78
2023/12/23 03:21:54;;;;;;;2.10;1.90;;;;;;;-143.21;59.34;71814.41;5025161;28;20658;-78
2023/12/23 03:24:20;;;;;;;4.10;2.10;;;;;;;-143.21;60.35;71820.34;5025514;28;20211;-78
2023/12/23 03:26:47;;;;;;;4.73;2.30;;;;;;;-143.21;61.01;71840.19;5025846;28;20218;-78
2023/12/23 03:29:14;;;;;;;4.97;2.50;;;;;;;-143.21;61.93;71860.00;5026679;28;20265;-79
2023/12/23 03:31:42;;;;;;;4.10;2.60;;;;;;;-143.21;62.23;71889.75;5027552;28;20198;-81
2023/12/23 03:34:09;;;;;;;3.67;2.80;;;;;;;-143.21;63.57;71915.53;5027791;28;20264;-80
2023/12/23 03:36:35;;;;;;;4.87;3.10;;;;;;;-143.21;65.08;71945.28;5027702;28;20248;-81
2023/12/23 03:39:03;;;;;;;4.40;3.03;;;;;;;-143.21;66.12;71980.97;5029390;28;20198;-79
2023/12/23 03:41:30;;;;;;;4.53;3.40;;;;;;;-143.21;67.52;72010.72;5025018;28;20735;-78
2023/12/23 03:43:57;;;;;;;4.50;3.40;;;;;;;-143.21;68.51;72092.00;5025920;28;20210;-78
2023/12/23 03:46:24;;;;;;;4.70;3.33;;;;;;;-143.21;69.98;72119.78;5026199;28;20212;-78
2023/12/23 03:48:52;;;;;;;5.03;3.30;;;;;;;-143.21;71.28;72145.56;5026646;28;20642;-80
2023/12/23 03:51:21;;;;;;;4.57;2.80;;;;;;;-143.21;71.18;72127.72;5027849;28;20220;-79
2023/12/23 03:53:47;;;;;;;3.80;2.90;;;;;;;-143.21;69.97;72123.75;5026245;28;20211;-79
2023/12/23 03:56:14;;;;;;;4.67;2.70;;;;;;;-143.21;68.51;72086.06;5024930;28;20220;-79
2023/12/23 03:58:41;;;;;;;3.00;2.50;;;;;;;-143.21;67.73;72060.28;5024957;28;20233;-80
2023/12/23 04:01:08;;;;;;;4.43;2.70;;;;;;;-143.21;68.10;72076.16;5027845;28;20209;-80
2023/12/23 04:03:35;;;;;;;4.33;2.20;;;;;;;-143.21;67.96;72062.25;5026291;28;20208;-80
2023/12/23 04:06:03;;;;;;;2.37;2.03;;;;;;;-143.21;65.92;72006.75;5025131;28;20209;-79
2023/12/23 04:08:30;;;;;;;1.60;1.50;;;;;;;-143.21;62.70;71959.16;5025195;28;20207;-78
2023/12/23 04:10:57;;;;;;;1.50;1.40;;;;;;;-143.21;61.13;71889.75;5026488;28;20610;-84
2023/12/23 04:13:24;;;;;;;4.07;1.47;;;;;;;-143.21;60.00;71858.03;5032578;28;20719;-83
2023/12/23 04:15:50;;;;;;;1.60;1.27;;;;;;;-143.21;58.32;71814.41;5033209;28;20237;-84
2023/12/23 04:18:20;;;;;;;1.50;1.40;;;;;;;-143.21;58.39;71832.25;5042027;28;20233;-84
2023/12/23 04:20:47;;;;;;;1.50;1.40;;;;;;;-143.21;57.55;71800.53;5038090;28;20701;-84
2023/12/23 04:23:15;;;;;;;1.83;1.33;;;;;;;-143.21;57.24;71802.50;5037920;28;20214;-84
2023/12/23 04:25:42;;;;;;;1.47;1.37;;;;;;;-143.21;56.72;71768.78;5020104;28;20199;-84
2023/12/23 04:28:10;;;;;;;1.50;1.40;;;;;;;-143.21;56.22;71735.09;5016775;28;20258;-83
2023/12/23 04:30:37;;;;;;;2.13;1.57;;;;;;;-143.21;54.95;71683.53;5034432;28;20203;-84
2023/12/23 04:33:04;;;;;;;1.30;1.20;;;;;;;-143.21;54.81;71679.56;5036273;28;20207;-82
2023/12/23 04:35:31;;;;;;;1.73;1.33;;;;;;;-143.21;54.43;71649.81;5045368;28;20834;-84
2023/12/23 04:37:57;;;;;;;2.00;1.40;;;;;;;-143.21;53.93;71653.78;5036391;28;20700;-83
2023/12/23 04:40:26;;;;;;;1.67;1.30;;;;;;;-143.21;53.96;71639.91;5033286;28;20199;-84
2023/12/23 04:42:52;;;;;;;1.40;1.30;;;;;;;-143.21;53.75;71671.63;5034450;28;20214;-83
2023/12/23 04:45:19;;;;;;;1.47;1.20;;;;;;;-143.21;53.83;71659.75;5033792;28;20225;-83
2023/12/23 04:47:46;;;;;;;1.50;1.40;;;;;;;-143.21;54.12;71659.75;5038320;28;20594;-85
2023/12/23 04:50:13;;;;;;;1.67;1.40;;;;;;;-143.21;54.06;71649.81;5032925;28;20209;-85
2023/12/23 04:52:40;;;;;;;1.23;1.20;;;;;;;-143.21;52.60;71624.06;5044437;28;20218;-84
2023/12/23 04:55:09;;;;;;;3.27;1.30;;;;;;;-143.21;52.43;71626.03;5046005;28;20591;-84
2023/12/23 04:57:38;;;;;;;1.50;1.40;;;;;;;-143.21;52.59;71631.97;5040531;28;20219;-84
2023/12/23 05:00:07;;;;;;;1.73;1.30;;;;;;;-143.21;52.90;71649.81;5039333;28;20205;-85
2023/12/23 05:02:33;;;;;;;3.20;1.30;;;;;;;-143.21;52.87;71681.56;5038920;28;20317;-85
2023/12/23 05:05:01;;;;;;;1.53;1.33;;;;;;;-143.21;52.67;71677.59;5033528;28;20217;-83
2023/12/23 05:07:28;;;;;;;1.50;1.40;;;;;;;-143.21;53.07;71701.38;5040262;28;20206;-83
2023/12/23 05:09:55;;;;;;;2.30;1.60;;;;;;;-143.21;53.85;71715.25;5037440;28;20203;-84
2023/12/23 05:12:22;;;;;;;1.60;1.50;;;;;;;-143.21;53.56;71713.28;5035704;28;20228;-82
2023/12/23 05:14:51;;;;;;;1.70;1.30;;;;;;;-143.21;53.56;71685.50;5028100;28;20372;-78
2023/12/23 05:17:18;;;;;;;1.73;1.40;;;;;;;-143.21;52.75;71679.56;5030029;28;20317;-79
2023/12/23 05:19:47;;;;;;;2.10;1.20;;;;;;;-143.21;52.61;71659.75;5028951;28;20217;-79
2023/12/23 05:22:13;;;;;;;3.93;1.40;;;;;;;-143.21;52.78;71681.56;5027587;28;20294;-79
2023/12/23 05:24:42;;;;;;;3.50;1.40;;;;;;;-143.21;53.36;71713.28;5027539;28;20265;-79
2023/12/23 05:27:09;;;;;;;1.37;1.27;;;;;;;-143.21;53.56;71725.16;5027408;28;20214;-78
2023/12/23 05:29:36;;;;;;;2.83;1.50;;;;;;;-143.21;53.41;71715.25;5029867;28;20658;-78
2023/12/23 05:32:05;;;;;;;2.10;1.50;;;;;;;-143.21;53.56;71715.25;5027402;28;20213;-80
2023/12/23 05:34:32;;;;;;;4.43;1.70;;;;;;;-143.21;53.69;71707.31;5027676;28;20218;-78
2023/12/23 05:36:58;;;;;;;1.70;1.50;;;;;;;-143.21;53.82;71687.50;5026872;28;20206;-78
2023/12/23 05:39:25;;;;;;;2.27;1.57;;;;;;;-143.21;53.98;71695.44;5029821;28;20226;-79
2023/12/23 05:41:52;;;;;;;2.73;1.50;;;;;;;-143.21;53.92;71713.28;5028359;28;20210;-77
2023/12/23 05:44:19;;;;;;;3.77;1.70;;;;;;;-143.21;54.57;71723.19;5029108;28;20203;-79
2023/12/23 05:46:46;;;;;;;2.10;1.60;;;;;;;-143.21;54.62;71729.13;5028413;28;20211;-80
2023/12/23 05:49:14;;;;;;;6.53;1.67;;;;;;;-143.21;54.53;71701.38;5028333;28;20214;-79
2023/12/23 05:51:41;;;;;;;2.90;1.50;;;;;;;-143.21;54.52;71709.31;5029294;28;20212;-79
2023/12/23 05:54:08;;;;;;;1.53;1.40;;;;;;;-143.21;54.36;71701.38;5027712;28;20203;-78
2023/12/23 05:56:34;;;;;;;4.50;1.50;;;;;;;-143.21;54.55;71705.34;5027704;28;20211;-79
2023/12/23 05:59:01;;;;;;;2.60;1.80;;;;;;;-143.21;54.54;71699.41;5028719;28;20222;-82
2023/12/23 06:01:28;;;;;;;3.47;1.67;;;;;;;-143.21;54.37;71705.34;5029802;28;20201;-83
2023/12/23 06:03:55;;;;;;;2.47;1.60;;;;;;;-143.21;54.41;71707.31;5028989;28;20202;-82
2023/12/23 06:06:23;;;;;;;3.73;1.50;;;;;;;-143.21;54.92;71703.34;5029586;28;20572;-83
2023/12/23 06:08:49;;;;;;;1.57;1.47;;;;;;;-143.21;54.67;71735.09;5030493;28;20202;-83
2023/12/23 06:11:16;;;;;;;4.00;1.60;;;;;;;-143.21;54.30;71705.34;5030552;28;20210;-83
2023/12/23 06:13:43;;;;;;;2.70;1.70;;;;;;;-143.21;54.64;71713.28;5030780;28;20253;-80
2023/12/23 06:16:10;;;;;;;2.57;2.10;;;;;;;-143.21;55.27;71723.19;5025279;28;20256;-81
2023/12/23 06:18:37;;;;;;;3.23;1.80;;;;;;;-143.21;55.19;71737.06;5036159;28;20222;-81
2023/12/23 06:21:04;;;;;;;2.20;1.60;;;;;;;-143.21;55.22;71743.00;5024867;28;20221;-81
2023/12/23 06:23:32;;;;;;;3.60;1.70;;;;;;;-143.21;55.00;71735.09;5027901;28;20269;-81
2023/12/23 06:25:59;;;;;;;2.67;1.80;;;;;;;-143.21;55.52;71743.00;5034144;28;20654;-81
2023/12/23 06:28:26;;;;;;;2.53;1.50;;;;;;;-143.21;55.70;71729.13;5032293;28;20214;-80
2023/12/23 06:30:53;;;;;;;3.87;1.70;;;;;;;-143.21;56.23;71758.88;5027430;28;20206;-81
2023/12/23 06:33:20;;;;;;;2.73;1.70;;;;;;;-143.21;56.41;71782.69;5024473;28;20241;-81
2023/12/23 06:35:46;;;;;;;2.00;1.70;;;;;;;-143.21;56.79;71764.81;5038799;28;20202;-82
2023/12/23 06:38:15;;;;;;;2.73;1.80;;;;;;;-143.21;56.44;71756.91;5033108;28;20226;-77
2023/12/23 06:40:44;;;;;;;3.60;1.73;;;;;;;-143.21;56.90;71746.97;5018446;28;20204;-76
2023/12/23 06:43:11;;;;;;;7.33;1.70;;;;;;;-143.21;56.31;71703.34;5013206;28;21169;-78
2023/12/23 06:45:40;;;;;;;2.57;2.03;;;;;;;-143.21;56.69;71750.94;5020482;28;20663;-77
2023/12/23 06:48:07;;;;;;;3.40;1.80;;;;;;;-143.21;57.00;71778.72;5016970;28;20199;-77
2023/12/23 06:50:34;;;;;;;2.93;1.73;;;;;;;-143.21;57.45;71776.72;5015123;28;20218;-77
2023/12/23 06:53:01;;;;;;;2.43;1.80;;;;;;;-143.21;57.07;71750.94;5012622;28;20235;-78
2023/12/23 06:55:30;;;;;;;2.60;1.80;;;;;;;-143.21;56.95;71746.97;5020927;28;20206;-76
2023/12/23 06:58:00;;;;;;;4.20;2.00;;;;;;;-143.21;56.40;71737.06;5010576;28;20318;-77
2023/12/23 07:00:27;;;;;;;2.47;1.80;;;;;;;-143.21;56.77;71723.19;5025829;28;20206;-79
2023/12/23 07:02:54;;;;;;;4.37;2.00;;;;;;;-143.21;56.63;71735.09;5017637;28;20210;-80
2023/12/23 07:05:21;;;;;;;2.80;1.70;;;;;;;-143.21;56.34;71725.16;5025720;28;20242;-79
2023/12/23 07:07:48;;;;;;;3.07;1.70;;;;;;;-143.21;56.61;71717.25;5022522;28;20230;-79
2023/12/23 07:10:16;;;;;;;3.13;1.73;;;;;;;-143.21;56.70;71731.13;5018420;28;20221;-79
2023/12/23 07:12:43;;;;;;;4.47;1.63;;;;;;;-143.21;56.90;71745.00;5018913;28;20211;-79
2023/12/23 07:15:11;;;;;;;4.53;2.00;;;;;;;-143.21;56.95;71733.09;5024934;28;20270;-79
2023/12/23 07:17:38;;;;;;;4.53;2.07;;;;;;;-143.21;56.82;71756.91;5027992;28;20203;-79
2023/12/23 07:20:06;;;;;;;7.20;2.10;;;;;;;-143.21;56.48;71733.09;5026880;28;20202;-79
2023/12/23 07:22:32;;;;;;;3.97;1.90;;;;;;;-143.21;56.98;71733.09;5026900;28;20304;-78
2023/12/23 07:24:59;;;;;;;3.13;2.00;;;;;;;-143.21;56.85;71743.00;5026322;28;20292;-79
2023/12/23 07:27:26;;;;;;;4.40;2.70;;;;;;;-143.21;57.08;71727.16;5025076;28;20207;-78
2023/12/23 07:29:53;;;;;;;3.80;2.00;;;;;;;-143.21;57.32;71735.09;5028832;28;20202;-78
2023/12/23 07:32:21;;;;;;;3.53;2.57;;;;;;;-143.21;57.42;71743.00;5025624;28;20210;-79
2023/12/23 07:34:48;;;;;;;3.40;2.47;;;;;;;-143.21;57.18;71729.13;5025854;28;20202;-79
2023/12/23 07:37:15;;;;;;;2.90;2.20;;;;;;;-143.21;56.82;71739.06;5025166;28;20301;-80
2023/12/23 07:39:42;;;;;;;6.80;2.90;;;;;;;-143.21;57.40;71729.13;5028110;28;20729;-80
2023/12/23 07:42:08;;;;;;;5.17;2.20;;;;;;;-143.21;57.36;71729.13;5025852;28;20194;-78
2023/12/23 07:44:36;;;;;;;5.23;2.70;;;;;;;-143.21;56.84;71723.19;5025670;28;20588;-80
2023/12/23 07:47:05;;;;;;;5.13;2.50;;;;;;;-143.21;56.76;71709.31;5025487;28;20207;-79
2023/12/23 07:49:33;;;;;;;4.40;2.17;;;;;;;-143.21;57.43;71693.44;5025957;28;20677;-79
2023/12/23 07:52:00;;;;;;;5.73;2.33;;;;;;;-143.21;57.21;71707.31;5026786;28;20272;-78
2023/12/23 07:54:27;;;;;;;5.17;2.60;;;;;;;-143.21;57.34;71721.22;5025246;28;20211;-77
2023/12/23 07:56:54;;;;;;;4.70;2.90;;;;;;;-143.21;57.06;71713.28;5025206;28;20207;-78
2023/12/23 07:59:20;;;;;;;5.57;2.60;;;;;;;-143.21;56.76;71717.25;5025116;28;20234;-78
2023/12/23 08:01:47;;;;;;;8.07;2.80;;;;;;;-143.21;56.92;71717.25;5026757;28;20203;-79
2023/12/23 08:04:15;;;;;;;5.97;3.10;;;;;;;-143.21;57.16;71731.13;5017079;28;20202;-78
2023/12/23 08:06:44;;;;;;;4.17;2.77;;;;;;;-143.21;57.42;71723.19;5028474;28;20685;-77
2023/12/23 08:09:10;;;;;;;3.77;2.80;;;;;;;-143.21;57.07;71713.28;5027677;28;20195;-78
2023/12/23 08:11:40;;;;;;;6.03;3.10;;;;;;;-143.21;57.46;71725.16;5028726;28;21119;-78
2023/12/23 08:14:06;;;;;;;7.80;3.60;;;;;;;-143.21;57.46;71721.22;5030345;28;20292;-78
2023/12/23 08:16:33;;;;;;;5.27;3.60;;;;;;;-143.21;57.27;71703.34;5028186;28;20206;-79
2023/12/23 08:19:00;;;;;;;8.77;3.60;;;;;;;-143.21;57.37;71695.44;5028191;28;20229;-79
2023/12/23 08:21:27;;;;;;;5.33;3.33;;;;;;;-143.21;56.84;71707.31;5025657;28;20230;-75
2023/12/23 08:23:55;;;;;;;5.93;3.63;;;;;;;-143.21;56.72;71717.25;5034356;28;20202;-84
2023/12/23 08:26:22;;;;;;;8.03;3.90;;;;;;;-143.21;57.55;71725.16;5033355;28;20213;-86
2023/12/23 08:28:49;;;;;;;5.23;3.10;;;;;;;-143.21;57.17;71721.22;5032808;28;20265;-88
2023/12/23 08:31:15;;;;;;;7.93;3.63;;;;;;;-143.21;57.40;71743.00;5033644;28;20223;-86
2023/12/23 08:33:42;;;;;;;13.63;4.40;;;;;;;-143.21;57.13;71756.91;5035321;28;20221;-87
2023/12/23 08:36:09;;;;;;;8.60;5.03;;;;;;;-143.21;57.71;71818.38;5031549;28;20629;-87
2023/12/23 08:38:36;;;;;;;6.30;4.10;;;;;;;-143.21;58.41;71836.22;5032040;28;20261;-89
2023/12/23 08:41:05;;;;;;;7.13;3.47;;;;;;;-143.21;59.82;71869.91;5032450;28;20230;-88
2023/12/23 08:43:32;;;;;;;6.47;3.17;;;;;;;-143.21;60.57;71885.78;5031124;28;20889;-88
2023/12/23 08:45:59;;;;;;;9.20;3.60;;;;;;;-143.21;61.95;71875.88;5032562;28;22197;-83
2023/12/23 08:48:27;;;;;;;10.67;4.17;;;;;;;-143.21;62.56;71909.56;5028594;28;20276;-85
2023/12/23 08:50:54;;;;;;;6.57;3.13;;;;;;;-143.21;62.87;71945.28;5030661;28;20592;-86
2023/12/23 08:53:21;;;;;;;8.73;3.67;;;;;;;-143.21;63.47;71947.25;5030694;28;20203;-85
2023/12/23 08:55:48;;;;;;;7.73;4.27;;;;;;;-143.21;63.46;71959.16;5031968;28;20214;-85
2023/12/23 08:58:19;;;;;;;9.90;4.53;;;;;;;-143.21;64.05;71994.84;5030631;28;20214;-87
2023/12/23 09:00:49;;;;;;;7.57;4.10;;;;;;;-143.21;64.74;72008.72;5032519;28;20731;-86
2023/12/23 09:03:16;;;;;;;10.00;4.90;;;;;;;-143.21;65.61;72018.63;5033986;28;20203;-87
2023/12/23 09:05:43;;;;;;;19.33;6.10;;;;;;;-143.21;66.94;72034.50;5034058;28;20306;-86
2023/12/23 09:08:10;;;;;;;10.10;5.90;;;;;;;-143.21;67.90;72048.38;5030370;28;20204;-85
2023/12/23 09:10:37;;;;;;;8.60;5.30;;;;;;;-143.21;68.47;72050.38;5029510;28;20207;-80
2023/12/23 09:13:05;;;;;;;10.27;5.30;;;;;;;-143.21;69.32;72046.41;5263630;22;20249;-91
2023/12/23 09:15:35;;;;;;;7.43;4.50;;;;;;;-143.21;69.60;72062.25;5176778;22;21075;-91
2023/12/23 09:18:03;;;;;;;7.03;4.20;;;;;;;-143.21;69.75;72078.13;5080540;28;20569;-91
2023/12/23 09:20:32;;;;;;;8.13;4.03;;;;;;;-143.21;69.47;72092.00;5083890;28;20328;-91
2023/12/23 09:23:02;;;;;;;7.17;4.50;;;;;;;-143.21;69.61;72103.91;5075071;28;20241;-93
2023/12/23 09:25:29;;;;;;;6.83;4.13;;;;;;;-143.21;70.05;72133.66;5062606;23;20326;-93
2023/12/23 09:28:06;;;;;;;6.07;3.77;;;;;;;-143.21;70.01;72143.56;5058286;23;20241;-96
2023/12/23 09:33:00;;;;;;;8.88;4.45;;;;;;;-143.21;69.91;72141.59;5022614;23;20233;-78
2023/12/23 09:35:26;;;;;;;9.60;5.53;;;;;;;-143.21;70.39;72153.47;5007141;28;20215;-77
2023/12/23 09:37:53;;;;;;;8.40;5.37;;;;;;;-143.21;70.05;72169.34;5006998;28;20269;-82
2023/12/23 09:40:20;;;;;;;6.73;3.60;;;;;;;-143.21;70.17;72181.25;5008548;28;20269;-82
2023/12/23 09:42:47;;;;;;;5.70;3.70;;;;;;;-143.21;70.97;72199.09;5006201;28;20262;-76
2023/12/23 09:45:15;;;;;;;5.37;2.90;;;;;;;-143.21;71.39;72214.97;5002145;28;20628;-76
2023/12/23 09:47:42;;;;;;;4.67;3.47;;;;;;;-143.21;71.86;72266.53;5006746;28;20306;-79
2023/12/23 09:50:10;;;;;;;5.70;2.90;;;;;;;-143.21;72.75;72260.56;5006735;28;20199;-79
2023/12/23 09:52:37;;;;;;;5.70;3.60;;;;;;;-143.21;74.34;72280.41;5008544;28;20237;-84
2023/12/23 09:55:04;;;;;;;6.43;3.70;;;;;;;-143.21;76.04;72320.06;5009866;28;20313;-85
2023/12/23 09:57:32;;;;;;;5.50;3.40;;;;;;;-143.21;76.82;72331.97;5008466;28;20204;-82
2023/12/23 09:59:59;;;;;;;4.90;3.63;;;;;;;-143.21;78.50;72389.47;5007399;28;20231;-84
2023/12/23 10:02:26;;;;;;;4.63;3.17;;;;;;;-143.21;79.60;72387.50;5009026;28;20218;-84
2023/12/23 10:04:53;;;;;;;5.13;3.60;;;;;;;-143.21;80.26;72397.41;5008508;28;20203;-80
2023/12/23 10:07:21;;;;;;;7.10;4.30;;;;;;;-143.21;80.39;72403.34;5005761;28;20196;-87
2023/12/23 10:09:50;;;;;;;6.87;4.20;;;;;;;-143.21;80.32;72423.19;5010971;28;20203;-87
2023/12/23 10:12:17;;;;;;;8.80;4.30;;;;;;;-143.21;81.23;72429.16;5012235;28;21423;-87
2023/12/23 10:14:44;;;;;;;11.33;5.90;;;;;;;-143.21;81.72;72450.97;5010077;28;20206;-85
2023/12/23 10:17:11;;;;;;;8.20;5.07;;;;;;;-143.21;81.00;72466.81;5004713;28;20192;-83
2023/12/23 10:19:38;;;;;;;14.90;8.10;;;;;;;-143.21;81.10;72466.81;5008505;28;20219;-75
2023/12/23 10:22:04;;;;;;;16.63;8.23;;;;;;;-143.21;81.53;72486.66;5003051;28;20200;-77
2023/12/23 10:24:33;;;;;;;7.20;5.23;;;;;;;-143.21;81.42;72480.72;5007286;28;20198;-77
2023/12/23 10:27:00;;;;;;;8.40;4.83;;;;;;;-143.21;82.17;72490.63;5008486;28;20206;-77
2023/12/23 10:29:31;;;;;;;9.53;4.70;;;;;;;-143.21;81.69;72508.47;5002997;28;20595;-77
2023/12/23 10:32:03;;;;;;;5.20;3.77;;;;;;;-143.21;81.00;72512.44;5005493;28;20245;-78
2023/12/23 10:34:40;;;;;;;6.00;3.00;;;;;;;-143.21;80.81;72512.44;5001056;28;20590;-77
2023/12/23 10:37:07;;;;;;;3.37;2.43;;;;;;;-143.21;80.32;72502.53;5004141;28;20198;-77
2023/12/23 10:39:42;;;;;;;7.97;3.87;;;;;;;-143.21;81.05;72526.31;5004666;28;20218;-77
2023/12/23 10:42:13;;;;;;;5.93;3.40;;;;;;;-143.21;81.18;72526.31;5004374;28;20205;-78
2023/12/23 10:44:44;;;;;;;4.83;2.87;;;;;;;-143.21;80.45;72516.41;5005541;28;20210;-77
2023/12/23 10:47:11;;;;;;;2.67;2.20;;;;;;;-143.21;80.47;72544.16;5002249;28;20212;-77
2023/12/23 10:49:38;;;;;;;2.67;2.20;;;;;;;-143.21;81.09;72565.97;5009018;28;20209;-77
2023/12/23 10:52:07;;;;;;;3.80;3.00;;;;;;;-143.21;82.00;72579.88;5005268;28;20231;-78
2023/12/23 10:54:37;;;;;;;5.73;3.17;;;;;;;-143.21;82.28;72579.88;5005455;28;20201;-78
2023/12/23 10:57:05;;;;;;;5.90;3.53;;;;;;;-143.21;82.13;72581.84;5005183;28;20268;-77
2023/12/23 10:59:32;;;;;;;5.03;3.40;;;;;;;-143.21;82.47;72583.84;5006348;28;20601;-77
2023/12/23 11:02:07;;;;;;;4.63;3.23;;;;;;;-143.21;82.29;72575.91;5002829;28;20204;-79
2023/12/23 11:04:35;;;;;;;5.50;3.53;;;;;;;-143.21;82.81;72577.88;5001335;28;20283;-77
2023/12/23 11:07:03;;;;;;;5.53;3.47;;;;;;;-143.21;83.52;72573.91;5004262;28;20203;-78
2023/12/23 11:09:31;;;;;;;7.47;4.37;;;;;;;-143.21;82.85;72542.19;5001842;28;20210;-78
2023/12/23 11:12:00;;;;;;;10.80;5.93;;;;;;;-143.21;82.38;72526.31;5001343;28;20225;-78
2023/12/23 11:14:27;;;;;;;10.47;6.90;;;;;;;-143.21;82.48;72520.38;5004479;28;20226;-78
2023/12/23 11:16:56;;;;;;;8.93;5.40;;;;;;;-143.21;81.26;72508.47;4999806;28;20216;-78
2023/12/23 11:19:23;;;;;;;11.03;6.57;;;;;;;-143.21;80.78;72496.56;4999071;28;20219;-77